TAP686 LPPR-ELLX
Flight info
| Callsign | TAP686 |
|---|---|
| Flight time | N/A |
| Altitude | 36000 |
| Route | TURON9E TURON P600 ASDEB DCT LOTEE DCT AZFIC UN741 NTS DCT PIWIZ DCT TSU UM163 LEQOS DCT CTL DCT MMD MMD2V |
| Aircraft | A320/M-SDE3FGHIRWY/LB1 |
Departure
| Time | 2026-05-04 14:32 |
|---|---|
| Airport | Francisco de Sá Carneiro Airport (LPPR) |
Arrival
| Time | N/A |
|---|---|
| Airport | Luxembourg-Findel International Airport (ELLX) |
| Time | Latitude | Longitude | Altitude | Speed | Heading |
|---|---|---|---|---|---|
| 2026-05-04 14:05 | 41.23444 | -8.67256 | 242 ft | 0 kts | 59° |
| 2026-05-04 14:21 | 41.23438 | -8.67269 | 242 ft | 2 kts | 54° |
| 2026-05-04 14:22 | 41.23436 | -8.67272 | 242 ft | 0 kts | 53° |
| 2026-05-04 14:22 | 41.23434 | -8.67276 | 242 ft | 2 kts | 51° |
| 2026-05-04 14:22 | 41.23423 | -8.67293 | 242 ft | 2 kts | 46° |
| 2026-05-04 14:22 | 41.23411 | -8.67308 | 241 ft | 2 kts | 39° |
| 2026-05-04 14:23 | 41.23382 | -8.67329 | 239 ft | 2 kts | 6° |
| 2026-05-04 14:23 | 41.23365 | -8.67327 | 239 ft | 2 kts | 333° |
| 2026-05-04 14:23 | 41.23353 | -8.67312 | 240 ft | 2 kts | 288° |
| 2026-05-04 14:24 | 41.23352 | -8.67304 | 240 ft | 0 kts | 266° |
| 2026-05-04 14:25 | 41.23335 | -8.67423 | 237 ft | 14 kts | 259° |
| 2026-05-04 14:25 | 41.23316 | -8.67537 | 239 ft | 9 kts | 258° |
| 2026-05-04 14:26 | 41.23309 | -8.67586 | 236 ft | 6 kts | 259° |
| 2026-05-04 14:26 | 41.23308 | -8.67595 | 237 ft | 1 kts | 259° |
| 2026-05-04 14:26 | 41.23307 | -8.67602 | 237 ft | 0 kts | 260° |
| 2026-05-04 14:29 | 41.23306 | -8.67610 | 237 ft | 3 kts | 261° |
| 2026-05-04 14:30 | 41.23298 | -8.67665 | 239 ft | 8 kts | 263° |
| 2026-05-04 14:30 | 41.23329 | -8.67736 | 239 ft | 9 kts | 334° |
| 2026-05-04 14:30 | 41.23355 | -8.67745 | 239 ft | 2 kts | 348° |
| 2026-05-04 14:31 | 41.23491 | -8.67783 | 235 ft | 54 kts | 350° |
| 2026-05-04 14:31 | 41.25084 | -8.68186 | 210 ft | 166 kts | 348° |
| 2026-05-04 14:32 | 41.27382 | -8.68727 | 1575 ft | 164 kts | 345° |
| 2026-05-04 14:32 | 41.28482 | -8.69038 | 2362 ft | 165 kts | 345° |
| 2026-05-04 14:32 | 41.29663 | -8.69382 | 2811 ft | 184 kts | 345° |
| 2026-05-04 14:32 | 41.30987 | -8.69751 | 3265 ft | 205 kts | 346° |
| 2026-05-04 14:33 | 41.32476 | -8.70147 | 3712 ft | 230 kts | 346° |
| 2026-05-04 14:33 | 41.34113 | -8.70578 | 4360 ft | 250 kts | 346° |
| 2026-05-04 14:33 | 41.35855 | -8.71034 | 5274 ft | 257 kts | 346° |
| 2026-05-04 14:33 | 41.37597 | -8.71487 | 6308 ft | 260 kts | 346° |
| 2026-05-04 14:34 | 41.39417 | -8.71961 | 7253 ft | 266 kts | 346° |
| 2026-05-04 14:34 | 41.41232 | -8.72411 | 8164 ft | 272 kts | 350° |
| 2026-05-04 14:34 | 41.43169 | -8.72499 | 9109 ft | 280 kts | 1° |
| 2026-05-04 14:34 | 41.45091 | -8.72096 | 10057 ft | 287 kts | 8° |
| 2026-05-04 14:35 | 41.47085 | -8.71570 | 10678 ft | 303 kts | 8° |
| 2026-05-04 14:35 | 41.49241 | -8.71022 | 11000 ft | 326 kts | 8° |
| 2026-05-04 14:35 | 41.51527 | -8.70445 | 11493 ft | 340 kts | 8° |
| 2026-05-04 14:35 | 41.53871 | -8.69852 | 12340 ft | 344 kts | 8° |
| 2026-05-04 14:36 | 41.56231 | -8.69252 | 13190 ft | 348 kts | 7° |
| 2026-05-04 14:36 | 41.58631 | -8.68641 | 13968 ft | 353 kts | 7° |
| 2026-05-04 14:36 | 41.61057 | -8.68025 | 14688 ft | 357 kts | 7° |
| 2026-05-04 14:36 | 41.63517 | -8.67400 | 15388 ft | 362 kts | 7° |
| 2026-05-04 14:37 | 41.65973 | -8.66775 | 16103 ft | 366 kts | 7° |
| 2026-05-04 14:37 | 41.68486 | -8.66136 | 16790 ft | 370 kts | 6° |
| 2026-05-04 14:37 | 41.71028 | -8.65489 | 17487 ft | 375 kts | 6° |
| 2026-05-04 14:37 | 41.73607 | -8.64832 | 18179 ft | 379 kts | 6° |
| 2026-05-04 14:38 | 41.76209 | -8.64169 | 18781 ft | 383 kts | 6° |
| 2026-05-04 14:38 | 41.78840 | -8.63497 | 19373 ft | 387 kts | 6° |
| 2026-05-04 14:38 | 41.81497 | -8.62818 | 19985 ft | 390 kts | 6° |
| 2026-05-04 14:38 | 41.84173 | -8.62133 | 20588 ft | 394 kts | 6° |
| 2026-05-04 14:39 | 41.86863 | -8.61445 | 21157 ft | 398 kts | 5° |
| 2026-05-04 14:39 | 41.89568 | -8.60752 | 21743 ft | 401 kts | 5° |
| 2026-05-04 14:39 | 41.92316 | -8.60048 | 22338 ft | 404 kts | 5° |
| 2026-05-04 14:40 | 41.97905 | -8.58616 | 23405 ft | 413 kts | 5° |
| 2026-05-04 14:40 | 42.00733 | -8.57889 | 23914 ft | 416 kts | 5° |
| 2026-05-04 14:40 | 42.03590 | -8.57154 | 24392 ft | 420 kts | 5° |
| 2026-05-04 14:40 | 42.06466 | -8.56432 | 24857 ft | 421 kts | 3° |
| 2026-05-04 14:41 | 42.09377 | -8.55915 | 25285 ft | 422 kts | 0° |
| 2026-05-04 14:41 | 42.12265 | -8.55471 | 25697 ft | 426 kts | 1° |
| 2026-05-04 14:41 | 42.18194 | -8.54531 | 26517 ft | 432 kts | 1° |
| 2026-05-04 14:42 | 42.24201 | -8.53572 | 27301 ft | 438 kts | 1° |
| 2026-05-04 14:42 | 42.27238 | -8.53088 | 27660 ft | 441 kts | 1° |
| 2026-05-04 14:42 | 42.30300 | -8.52601 | 28012 ft | 444 kts | 1° |
| 2026-05-04 14:43 | 42.33340 | -8.52116 | 28377 ft | 447 kts | 1° |
| 2026-05-04 14:43 | 42.36478 | -8.51614 | 28721 ft | 450 kts | 1° |
| 2026-05-04 14:43 | 42.39552 | -8.51122 | 29056 ft | 453 kts | 1° |
| 2026-05-04 14:43 | 42.42686 | -8.50620 | 29375 ft | 455 kts | 1° |
| 2026-05-04 14:44 | 42.45841 | -8.50113 | 29678 ft | 458 kts | 1° |
| 2026-05-04 14:44 | 42.49007 | -8.49388 | 29943 ft | 468 kts | 11° |
| 2026-05-04 14:44 | 42.52081 | -8.47795 | 30219 ft | 478 kts | 23° |
| 2026-05-04 14:44 | 42.54890 | -8.45353 | 30497 ft | 486 kts | 36° |
| 2026-05-04 14:45 | 42.57466 | -8.42352 | 30775 ft | 489 kts | 38° |
| 2026-05-04 14:45 | 42.60022 | -8.39293 | 31085 ft | 490 kts | 38° |
| 2026-05-04 14:45 | 42.62575 | -8.36234 | 31444 ft | 490 kts | 38° |
| 2026-05-04 14:45 | 42.65103 | -8.33217 | 31832 ft | 489 kts | 38° |
| 2026-05-04 14:46 | 42.67648 | -8.30187 | 32242 ft | 487 kts | 38° |
| 2026-05-04 14:46 | 42.70189 | -8.27165 | 32622 ft | 486 kts | 38° |
| 2026-05-04 14:46 | 42.72737 | -8.24135 | 33003 ft | 484 kts | 38° |
| 2026-05-04 14:46 | 42.75270 | -8.21121 | 33377 ft | 483 kts | 38° |
| 2026-05-04 14:47 | 42.77796 | -8.18110 | 33742 ft | 482 kts | 38° |
| 2026-05-04 14:47 | 42.80311 | -8.15109 | 34085 ft | 481 kts | 38° |
| 2026-05-04 14:47 | 42.82822 | -8.12109 | 34354 ft | 480 kts | 38° |
| 2026-05-04 14:47 | 42.85301 | -8.09144 | 34597 ft | 480 kts | 38° |
| 2026-05-04 14:48 | 42.87809 | -8.06142 | 34831 ft | 480 kts | 38° |
| 2026-05-04 14:48 | 42.90305 | -8.03150 | 35060 ft | 480 kts | 39° |
| 2026-05-04 14:48 | 42.92825 | -8.00124 | 35289 ft | 480 kts | 39° |
| 2026-05-04 14:48 | 42.95331 | -7.97114 | 35516 ft | 479 kts | 39° |
| 2026-05-04 14:49 | 42.97827 | -7.94110 | 35742 ft | 479 kts | 39° |
| 2026-05-04 14:49 | 43.00329 | -7.91097 | 35971 ft | 479 kts | 39° |
| 2026-05-04 14:49 | 43.05276 | -7.85128 | 36047 ft | 477 kts | 39° |
| 2026-05-04 14:50 | 43.10243 | -7.79122 | 36045 ft | 476 kts | 39° |
| 2026-05-04 14:50 | 43.15202 | -7.73112 | 36041 ft | 476 kts | 39° |
| 2026-05-04 14:51 | 43.20162 | -7.67087 | 36038 ft | 476 kts | 39° |
| 2026-05-04 14:51 | 43.25085 | -7.61093 | 36035 ft | 476 kts | 39° |
| 2026-05-04 14:52 | 43.30028 | -7.55061 | 36031 ft | 475 kts | 39° |
| 2026-05-04 14:52 | 43.34964 | -7.49025 | 36029 ft | 475 kts | 39° |
| 2026-05-04 14:53 | 43.39901 | -7.42972 | 36025 ft | 475 kts | 40° |
| 2026-05-04 14:53 | 43.44799 | -7.36954 | 36022 ft | 475 kts | 40° |
| 2026-05-04 14:54 | 43.49725 | -7.30889 | 36013 ft | 476 kts | 40° |
| 2026-05-04 14:54 | 43.54660 | -7.24797 | 36013 ft | 476 kts | 40° |
| 2026-05-04 14:55 | 43.59584 | -7.18706 | 36008 ft | 476 kts | 40° |
| 2026-05-04 14:55 | 43.64502 | -7.12607 | 36004 ft | 476 kts | 40° |
| 2026-05-04 14:56 | 43.69396 | -7.06526 | 36011 ft | 476 kts | 40° |
| 2026-05-04 14:56 | 43.74314 | -7.00399 | 36009 ft | 476 kts | 40° |
| 2026-05-04 14:57 | 43.79234 | -6.94257 | 36013 ft | 476 kts | 40° |
| 2026-05-04 14:57 | 43.84138 | -6.88119 | 36014 ft | 476 kts | 40° |
| 2026-05-04 14:58 | 43.89012 | -6.82006 | 36005 ft | 476 kts | 41° |
| 2026-05-04 14:58 | 43.93919 | -6.75837 | 36007 ft | 476 kts | 41° |
| 2026-05-04 14:59 | 43.98823 | -6.69658 | 36006 ft | 476 kts | 41° |
| 2026-05-04 15:00 | 44.06131 | -6.60422 | 36002 ft | 475 kts | 41° |
| 2026-05-04 15:00 | 44.11017 | -6.54229 | 36009 ft | 475 kts | 41° |
| 2026-05-04 15:01 | 44.18334 | -6.44927 | 35999 ft | 474 kts | 41° |
| 2026-05-04 15:01 | 44.23201 | -6.38723 | 35995 ft | 474 kts | 41° |
| 2026-05-04 15:02 | 44.28066 | -6.32506 | 35991 ft | 474 kts | 41° |
| 2026-05-04 15:02 | 44.32881 | -6.26338 | 35990 ft | 474 kts | 42° |
| 2026-05-04 15:03 | 44.37742 | -6.20097 | 35991 ft | 474 kts | 42° |
| 2026-05-04 15:03 | 44.42587 | -6.13862 | 35996 ft | 474 kts | 42° |
| 2026-05-04 15:04 | 44.47438 | -6.07604 | 35998 ft | 474 kts | 42° |
| 2026-05-04 15:04 | 44.52247 | -6.01387 | 35992 ft | 473 kts | 42° |
| 2026-05-04 15:05 | 44.57078 | -5.95126 | 35992 ft | 473 kts | 43° |
| 2026-05-04 15:05 | 44.61913 | -5.88848 | 35994 ft | 473 kts | 43° |
| 2026-05-04 15:06 | 44.66721 | -5.82533 | 35993 ft | 473 kts | 44° |
| 2026-05-04 15:07 | 44.73799 | -5.72817 | 35992 ft | 473 kts | 44° |
| 2026-05-04 15:07 | 44.78490 | -5.66408 | 35997 ft | 473 kts | 44° |
| 2026-05-04 15:08 | 44.83195 | -5.59947 | 35992 ft | 473 kts | 44° |
| 2026-05-04 15:08 | 44.87906 | -5.53454 | 35993 ft | 473 kts | 45° |
| 2026-05-04 15:09 | 44.92614 | -5.46949 | 35990 ft | 473 kts | 45° |
| 2026-05-04 15:09 | 44.97304 | -5.40453 | 35996 ft | 473 kts | 45° |
| 2026-05-04 15:10 | 45.04311 | -5.30718 | 35985 ft | 473 kts | 45° |
| 2026-05-04 15:11 | 45.11333 | -5.20927 | 35992 ft | 473 kts | 45° |
| 2026-05-04 15:11 | 45.16017 | -5.14376 | 35996 ft | 473 kts | 45° |
| 2026-05-04 15:12 | 45.20655 | -5.07873 | 35987 ft | 472 kts | 45° |
| 2026-05-04 15:12 | 45.25329 | -5.01304 | 35993 ft | 472 kts | 45° |
| 2026-05-04 15:13 | 45.29989 | -4.94737 | 35990 ft | 472 kts | 45° |
| 2026-05-04 15:13 | 45.34648 | -4.88157 | 35988 ft | 472 kts | 45° |
| 2026-05-04 15:14 | 45.39265 | -4.81620 | 35988 ft | 472 kts | 45° |
| 2026-05-04 15:14 | 45.43908 | -4.75030 | 35987 ft | 471 kts | 46° |
| 2026-05-04 15:15 | 45.48554 | -4.68421 | 35980 ft | 471 kts | 46° |
| 2026-05-04 15:15 | 45.53153 | -4.61862 | 35988 ft | 471 kts | 46° |
| 2026-05-04 15:16 | 45.60086 | -4.51944 | 35979 ft | 471 kts | 46° |
| 2026-05-04 15:17 | 45.67013 | -4.41997 | 35974 ft | 470 kts | 46° |
| 2026-05-04 15:17 | 45.73925 | -4.32034 | 35980 ft | 470 kts | 46° |
| 2026-05-04 15:18 | 45.78494 | -4.25428 | 35979 ft | 470 kts | 46° |
| 2026-05-04 15:19 | 45.85391 | -4.15425 | 35988 ft | 470 kts | 46° |
| 2026-05-04 15:19 | 45.92250 | -4.05441 | 35986 ft | 470 kts | 46° |
| 2026-05-04 15:20 | 45.96810 | -3.98783 | 35985 ft | 470 kts | 47° |
| 2026-05-04 15:20 | 46.01417 | -3.92039 | 35981 ft | 470 kts | 47° |
| 2026-05-04 15:21 | 46.05987 | -3.85331 | 35976 ft | 470 kts | 47° |
| 2026-05-04 15:22 | 46.12851 | -3.75226 | 35976 ft | 470 kts | 47° |
| 2026-05-04 15:22 | 46.19657 | -3.65167 | 35972 ft | 470 kts | 47° |
| 2026-05-04 15:23 | 46.24228 | -3.58391 | 35972 ft | 470 kts | 47° |
| 2026-05-04 15:23 | 46.28785 | -3.51618 | 35970 ft | 470 kts | 47° |
| 2026-05-04 15:24 | 46.37884 | -3.38042 | 35975 ft | 470 kts | 47° |
| 2026-05-04 15:25 | 46.42384 | -3.31303 | 35978 ft | 469 kts | 47° |
| 2026-05-04 15:26 | 46.49185 | -3.21085 | 35976 ft | 469 kts | 47° |
| 2026-05-04 15:26 | 46.55805 | -3.10656 | 35974 ft | 467 kts | 53° |
| 2026-05-04 15:27 | 46.61132 | -2.98961 | 35964 ft | 464 kts | 62° |
| 2026-05-04 15:28 | 46.65998 | -2.86783 | 35961 ft | 464 kts | 62° |
| 2026-05-04 15:29 | 46.70863 | -2.74598 | 35957 ft | 464 kts | 62° |
| 2026-05-04 15:30 | 46.82150 | -2.46112 | 35954 ft | 465 kts | 62° |
| 2026-05-04 15:31 | 46.86871 | -2.34137 | 35961 ft | 466 kts | 61° |
| 2026-05-04 15:32 | 46.95405 | -2.14022 | 35962 ft | 468 kts | 60° |
| 2026-05-04 15:34 | 47.03765 | -1.93640 | 35969 ft | 467 kts | 63° |
| 2026-05-04 15:34 | 47.08505 | -1.81156 | 35972 ft | 467 kts | 63° |
| 2026-05-04 15:35 | 47.13267 | -1.68705 | 35984 ft | 468 kts | 63° |
| 2026-05-04 15:36 | 47.18092 | -1.56227 | 35982 ft | 468 kts | 62° |
| 2026-05-04 15:36 | 47.21445 | -1.48084 | 35975 ft | 468 kts | 61° |
| 2026-05-04 15:37 | 47.24805 | -1.39880 | 35969 ft | 467 kts | 62° |
| 2026-05-04 15:37 | 47.28133 | -1.31673 | 35963 ft | 467 kts | 62° |
| 2026-05-04 15:38 | 47.31450 | -1.23449 | 35946 ft | 467 kts | 62° |
| 2026-05-04 15:38 | 47.34758 | -1.15228 | 35946 ft | 466 kts | 62° |
| 2026-05-04 15:39 | 47.38035 | -1.07055 | 35944 ft | 466 kts | 62° |
| 2026-05-04 15:40 | 47.42975 | -0.94691 | 35941 ft | 467 kts | 62° |
| 2026-05-04 15:40 | 47.46274 | -0.86403 | 35948 ft | 467 kts | 62° |
| 2026-05-04 15:41 | 47.49552 | -0.78140 | 35941 ft | 468 kts | 62° |
| 2026-05-04 15:41 | 47.52827 | -0.69862 | 35940 ft | 468 kts | 62° |
| 2026-05-04 15:42 | 47.56106 | -0.61547 | 35938 ft | 469 kts | 62° |
| 2026-05-04 15:42 | 47.59406 | -0.53155 | 35933 ft | 470 kts | 62° |
| 2026-05-04 15:43 | 47.62667 | -0.44833 | 35929 ft | 471 kts | 62° |
| 2026-05-04 15:43 | 47.65960 | -0.36407 | 35938 ft | 472 kts | 62° |
| 2026-05-04 15:44 | 47.69244 | -0.27974 | 35944 ft | 473 kts | 63° |
| 2026-05-04 15:44 | 47.72540 | -0.19485 | 35953 ft | 474 kts | 63° |
| 2026-05-04 15:45 | 47.75806 | -0.11047 | 35961 ft | 474 kts | 63° |
| 2026-05-04 15:45 | 47.79090 | -0.02537 | 35973 ft | 475 kts | 63° |
| 2026-05-04 15:46 | 47.82369 | 0.05992 | 35974 ft | 475 kts | 63° |
| 2026-05-04 15:46 | 47.85641 | 0.14527 | 35976 ft | 475 kts | 63° |
| 2026-05-04 15:47 | 47.88831 | 0.22875 | 35968 ft | 475 kts | 63° |
| 2026-05-04 15:47 | 47.92113 | 0.31494 | 35991 ft | 476 kts | 63° |
| 2026-05-04 15:48 | 47.95365 | 0.40064 | 35997 ft | 478 kts | 63° |
| 2026-05-04 15:48 | 48.00250 | 0.52978 | 35983 ft | 475 kts | 63° |
| 2026-05-04 15:49 | 48.03486 | 0.61566 | 35963 ft | 474 kts | 63° |
| 2026-05-04 15:49 | 48.06319 | 0.69109 | 35949 ft | 472 kts | 63° |
| 2026-05-04 15:50 | 48.09485 | 0.77566 | 35930 ft | 471 kts | 63° |
| 2026-05-04 15:50 | 48.12678 | 0.86121 | 35926 ft | 470 kts | 63° |
| 2026-05-04 15:51 | 48.15850 | 0.94649 | 35920 ft | 469 kts | 63° |
| 2026-05-04 15:51 | 48.19006 | 1.03150 | 35913 ft | 469 kts | 63° |
| 2026-05-04 15:52 | 48.22479 | 1.11431 | 35911 ft | 471 kts | 56° |
| 2026-05-04 15:52 | 48.26538 | 1.19172 | 35910 ft | 472 kts | 52° |
| 2026-05-04 15:53 | 48.30707 | 1.26791 | 35916 ft | 473 kts | 52° |
| 2026-05-04 15:53 | 48.34170 | 1.33157 | 35929 ft | 474 kts | 52° |
| 2026-05-04 15:54 | 48.35550 | 1.35700 | 35911 ft | 474 kts | 52° |
| 2026-05-04 15:54 | 48.36250 | 1.36992 | 35921 ft | 474 kts | 52° |